createdAt,value
2019-05-14T00:01:31.458Z,100627.75
2019-05-14T00:04:02.074Z,100623.45
2019-05-14T00:06:31.334Z,100625.44
2019-05-14T00:09:01.487Z,100619.81
2019-05-14T00:11:31.299Z,100616.63
2019-05-14T00:14:02.704Z,100612.73
2019-05-14T00:16:31.873Z,100611.32
2019-05-14T00:19:01.968Z,100607.02
2019-05-14T00:21:31.611Z,100601.64
2019-05-14T00:24:02.454Z,100605.30
2019-05-14T00:26:31.900Z,100599.98
2019-05-14T00:29:01.700Z,100601.58
2019-05-14T00:31:31.751Z,100604.38
2019-05-14T00:34:02.032Z,100600.33
2019-05-14T00:36:31.922Z,100603.34
2019-05-14T00:39:01.783Z,100602.64
2019-05-14T00:41:31.298Z,100596.98
2019-05-14T00:44:01.916Z,100598.89
2019-05-14T00:46:31.577Z,100598.31
2019-05-14T00:49:01.793Z,100597.14
2019-05-14T00:51:31.811Z,100593.73
2019-05-14T00:54:02.142Z,100595.05
2019-05-14T00:56:32.128Z,100588.27
2019-05-14T00:59:03.589Z,100590.69
2019-05-14T01:01:32.732Z,100589.45
2019-05-14T01:04:03.001Z,100590.29
2019-05-14T01:06:36.648Z,100586.44
2019-05-14T01:09:06.343Z,100592.21
2019-05-14T01:11:35.399Z,100588.38
2019-05-14T01:14:05.715Z,100584.38
2019-05-14T01:16:34.749Z,100587.27
2019-05-14T01:19:04.942Z,100580.13
2019-05-14T01:21:33.972Z,100583.34
2019-05-14T01:24:02.972Z,100576.17
2019-05-14T01:26:32.092Z,100576.15
2019-05-14T01:29:01.552Z,100571.88
2019-05-14T01:31:31.506Z,100569.60
2019-05-14T01:34:02.167Z,100572.54
2019-05-14T01:36:32.097Z,100567.73
2019-05-14T01:39:01.934Z,100558.86
2019-05-14T01:41:33.114Z,100565.17
2019-05-14T01:44:03.740Z,100568.61
2019-05-14T01:46:32.863Z,100565.88
2019-05-14T01:49:02.305Z,100574.92
2019-05-14T01:51:31.762Z,100572.02
2019-05-14T01:54:03.020Z,100569.45
2019-05-14T01:56:32.080Z,100570.58
2019-05-14T01:59:01.653Z,100575.36
2019-05-14T02:01:31.485Z,100573.86
2019-05-14T02:04:02.379Z,100577.53
2019-05-14T02:06:31.898Z,100575.53
2019-05-14T02:09:02.003Z,100567.03
2019-05-14T02:11:32.054Z,100571.33
2019-05-14T02:14:06.415Z,100567.31
2019-05-14T02:16:35.435Z,100563.73
2019-05-14T02:19:04.652Z,100565.02
2019-05-14T02:21:33.732Z,100565.67
2019-05-14T02:24:04.361Z,100566.11
2019-05-14T02:26:33.358Z,100561.47
2019-05-14T02:29:02.486Z,100555.48
2019-05-14T02:31:32.360Z,100567.89
2019-05-14T02:34:01.650Z,100565.66
2019-05-14T02:36:31.180Z,100571.06
2019-05-14T02:39:00.738Z,100574.50
2019-05-14T02:41:45.306Z,100575.63
2019-05-14T02:44:18.825Z,100574.37
2019-05-14T02:46:50.229Z,100571.44
2019-05-14T02:49:21.719Z,100565.69
2019-05-14T02:51:51.213Z,100569.41
2019-05-14T02:54:21.604Z,100568.47
2019-05-14T02:56:50.669Z,100564.97
2019-05-14T02:59:19.907Z,100568.72
2019-05-14T03:01:50.344Z,100571.09
2019-05-14T03:04:20.010Z,100567.36
2019-05-14T03:06:49.821Z,100567.39
2019-05-14T03:09:20.337Z,100559.56
2019-05-14T03:11:49.766Z,100557.48
2019-05-14T03:14:21.238Z,100566.30
2019-05-14T03:16:50.284Z,100565.28
2019-05-14T03:19:19.806Z,100567.45
2019-05-14T03:21:50.126Z,100559.32
2019-05-14T03:24:21.118Z,100557.91
2019-05-14T03:26:50.350Z,100562.80
2019-05-14T03:29:19.911Z,100559.62
2019-05-14T03:31:52.549Z,100558.59
2019-05-14T03:34:22.138Z,100565.27
2019-05-14T03:36:52.529Z,100554.77
2019-05-14T03:39:21.918Z,100555.69
2019-05-14T03:41:50.956Z,100552.96
2019-05-14T03:44:20.136Z,100551.50
2019-05-14T03:46:55.108Z,100552.08
2019-05-14T03:49:22.126Z,100553.06
2019-05-14T03:51:51.386Z,100551.89
2019-05-14T03:54:20.436Z,100552.09
2019-05-14T03:56:50.843Z,100552.48
2019-05-14T03:59:20.210Z,100542.80
2019-05-14T04:01:51.020Z,100544.11
2019-05-14T04:04:20.201Z,100534.82
2019-05-14T04:06:49.860Z,100538.18
2019-05-14T04:09:20.239Z,100533.51
2019-05-14T04:11:50.806Z,100537.30
2019-05-14T04:14:22.458Z,100528.73
2019-05-14T04:17:08.081Z,100529.52
2019-05-14T04:19:25.547Z,100511.73
2019-05-14T04:21:54.761Z,100507.20
2019-05-14T04:24:23.790Z,100518.80
2019-05-14T04:27:06.903Z,100516.93
2019-05-14T04:29:30.621Z,100516.38
2019-05-14T04:32:00.472Z,100512.49
2019-05-14T04:34:34.379Z,100517.97
2019-05-14T04:37:05.488Z,100518.86
2019-05-14T04:39:34.594Z,100531.25
2019-05-14T04:42:03.650Z,100524.94
2019-05-14T04:44:32.740Z,100531.69
2019-05-14T04:47:21.730Z,100537.16
2019-05-14T04:49:32.589Z,100533.79
2019-05-14T04:52:01.706Z,100535.46
2019-05-14T04:54:30.763Z,100197.80
2019-05-14T04:57:00.352Z,100533.80
2019-05-14T04:59:30.128Z,100534.44
2019-05-14T05:02:00.268Z,100528.75
2019-05-14T05:04:30.122Z,100535.56
2019-05-14T05:06:59.594Z,100528.58
2019-05-14T05:09:29.485Z,100533.81
2019-05-14T05:11:59.841Z,100526.63
2019-05-14T05:14:29.777Z,100530.66
2019-05-14T05:17:00.587Z,100526.25
2019-05-14T05:19:29.666Z,100524.09
2019-05-14T05:21:59.125Z,100524.13
2019-05-14T05:24:28.845Z,100517.54
2019-05-14T05:26:58.642Z,100509.95
2019-05-14T05:29:28.609Z,100507.30
2019-05-14T05:31:59.380Z,100507.17
2019-05-14T05:34:28.680Z,100514.26
2019-05-14T05:36:59.275Z,100507.94
2019-05-14T05:39:28.643Z,100505.00
2019-05-14T05:41:58.493Z,100506.42
2019-05-14T05:44:28.743Z,100505.26
2019-05-14T05:46:59.825Z,100501.44
2019-05-14T05:49:29.327Z,100501.25
2019-05-14T05:52:00.073Z,100503.09
2019-05-14T05:54:30.407Z,100505.28
2019-05-14T05:57:02.081Z,100499.84
2019-05-14T05:59:31.119Z,100504.32
2019-05-14T06:02:00.279Z,100499.17
2019-05-14T06:04:29.412Z,100492.80
2019-05-14T06:07:02.852Z,100497.91
2019-05-14T06:09:32.054Z,100491.61
2019-05-14T06:12:01.207Z,100495.03
2019-05-14T06:14:31.791Z,100496.48
2019-05-14T06:17:00.876Z,100485.70
2019-05-14T06:19:29.981Z,100475.55
2019-05-14T06:21:59.846Z,100488.02
2019-05-14T06:24:31.544Z,100477.84
2019-05-14T06:27:04.106Z,100478.86
2019-05-14T06:29:34.807Z,100482.22
2019-05-14T06:32:04.111Z,100476.61
2019-05-14T06:34:33.261Z,100483.20
2019-05-14T06:37:03.704Z,100482.99
2019-05-14T06:39:32.883Z,100478.48
2019-05-14T06:42:02.058Z,100472.50
2019-05-14T06:44:32.246Z,100469.28
2019-05-14T06:47:02.877Z,100476.66
2019-05-14T06:49:31.966Z,100478.63
2019-05-14T06:52:00.993Z,100473.10
2019-05-14T06:54:30.149Z,100473.47
2019-05-14T06:56:59.161Z,100474.06
2019-05-14T06:59:28.874Z,100469.52
2019-05-14T07:01:58.264Z,100466.72
2019-05-14T07:04:28.868Z,100466.05
2019-05-14T07:06:59.142Z,100462.00
2019-05-14T07:09:29.043Z,100458.81
2019-05-14T07:12:03.652Z,100456.67
2019-05-14T07:14:32.695Z,100427.58
2019-05-14T07:17:01.757Z,100457.87
2019-05-14T07:19:30.872Z,100461.14
2019-05-14T07:22:00.045Z,100446.63
2019-05-14T07:25:10.095Z,100453.78
2019-05-14T07:27:40.648Z,100448.32
2019-05-14T07:30:10.779Z,100459.01
2019-05-14T07:32:39.955Z,100443.43
2019-05-14T07:35:11.803Z,100450.48
2019-05-14T07:37:41.509Z,100456.83
2019-05-14T07:40:10.623Z,100454.09
2019-05-14T07:42:39.670Z,100445.58
2019-05-14T07:45:09.575Z,100439.44
2019-05-14T07:47:39.881Z,100452.20
2019-05-14T07:50:10.075Z,100437.94
2019-05-14T07:52:45.473Z,100437.83
2019-05-14T07:55:12.263Z,100427.37
2019-05-14T07:57:42.585Z,100436.33
2019-05-14T08:00:12.011Z,100418.61
2019-05-14T08:02:41.147Z,100426.07
2019-05-14T08:05:10.466Z,100430.88
2019-05-14T08:07:39.525Z,100429.37
2019-05-14T08:10:09.171Z,100419.96
2019-05-14T08:12:39.842Z,100419.13
2019-05-14T08:15:18.271Z,100413.03
2019-05-14T08:17:39.799Z,100410.16
2019-05-14T08:20:09.967Z,100405.20
2019-05-14T08:22:39.056Z,100412.12
2019-05-14T08:25:08.634Z,100410.89
2019-05-14T08:27:38.932Z,100404.73
2019-05-14T08:30:08.839Z,100398.62
2019-05-14T08:32:39.024Z,100391.25
2019-05-14T08:35:09.051Z,100398.16
2019-05-14T08:37:38.902Z,100395.48
2019-05-14T08:40:09.522Z,100381.59
2019-05-14T08:42:38.877Z,100387.62
2019-05-14T08:45:13.519Z,100385.20
2019-05-14T08:47:43.397Z,100381.72
2019-05-14T08:50:12.478Z,100376.37
2019-05-14T08:52:41.575Z,100379.24
2019-05-14T08:55:13.991Z,100370.10
2019-05-14T08:57:44.393Z,100371.64
2019-05-14T09:00:14.265Z,100367.60
2019-05-14T09:02:43.444Z,100367.98
2019-05-14T09:05:12.529Z,100362.95
2019-05-14T09:07:41.719Z,100365.84
2019-05-14T09:10:10.865Z,100371.14
2019-05-14T09:12:39.961Z,100363.50
2019-05-14T09:15:09.754Z,100355.63
2019-05-14T09:17:39.366Z,100347.14
2019-05-14T09:20:11.616Z,100368.36
2019-05-14T09:22:39.954Z,100362.06
2019-05-14T09:25:09.084Z,100357.38
2019-05-14T09:27:38.945Z,100368.93
2019-05-14T09:30:09.670Z,100364.70
2019-05-14T09:32:41.303Z,100356.71
2019-05-14T09:35:11.314Z,100354.82
2019-05-14T09:37:41.504Z,100365.17
2019-05-14T09:40:10.797Z,100349.19
2019-05-14T09:42:39.929Z,100361.24
2019-05-14T09:45:10.891Z,100351.80
2019-05-14T09:47:39.953Z,100349.61
2019-05-14T09:50:19.200Z,100358.50
2019-05-14T09:52:42.202Z,100358.91
2019-05-14T09:55:11.328Z,100348.83
2019-05-14T09:57:41.911Z,100344.52
2019-05-14T10:00:14.511Z,100337.56
2019-05-14T10:02:43.209Z,100344.19
2019-05-14T10:05:12.335Z,100343.72
2019-05-14T10:07:43.070Z,100347.16
2019-05-14T10:10:12.090Z,100344.25
2019-05-14T10:12:52.958Z,100348.64
2019-05-14T10:15:12.002Z,100333.55
2019-05-14T10:17:41.101Z,100336.79
2019-05-14T10:20:10.216Z,100337.95
2019-05-14T10:22:39.930Z,100337.29
2019-05-14T10:25:11.382Z,100337.93
2019-05-14T10:27:40.566Z,100335.64
2019-05-14T10:30:11.337Z,100344.28
2019-05-14T10:32:41.710Z,100348.17
2019-05-14T10:35:10.984Z,100338.79
2019-05-14T10:37:40.281Z,100338.99
2019-05-14T10:40:10.465Z,100325.31
2019-05-14T10:42:40.349Z,100327.39
2019-05-14T10:45:12.743Z,100328.81
2019-05-14T10:47:42.107Z,100328.86
2019-05-14T10:50:13.829Z,100321.49
2019-05-14T10:52:43.102Z,100317.51
2019-05-14T10:55:12.122Z,100302.75
2019-05-14T10:57:42.484Z,100308.91
2019-05-14T11:00:11.613Z,100299.08
2019-05-14T11:02:40.700Z,100309.53
2019-05-14T11:05:09.742Z,100304.83
2019-05-14T11:07:41.685Z,100292.58
2019-05-14T11:10:09.681Z,100299.37
2019-05-14T11:12:39.771Z,100289.90
2019-05-14T11:15:09.054Z,100303.08
2019-05-14T11:17:40.681Z,100285.81
2019-05-14T11:20:08.924Z,100281.50
2019-05-14T11:22:38.175Z,100261.54
2019-05-14T11:25:09.186Z,100263.53
2019-05-14T11:27:38.796Z,100267.04
2019-05-14T11:30:08.945Z,100280.05
2019-05-14T11:32:38.679Z,100278.86
2019-05-14T11:35:12.783Z,100284.20
2019-05-14T11:37:41.380Z,100277.84
2019-05-14T11:40:10.703Z,100284.92
2019-05-14T11:42:39.808Z,100275.92
2019-05-14T11:45:09.109Z,100276.14
2019-05-14T11:47:39.263Z,100267.06
2019-05-14T11:50:10.054Z,100263.45
2019-05-14T11:52:41.298Z,100257.91
2019-05-14T11:55:12.698Z,100260.56
2019-05-14T11:57:42.920Z,100274.06
2019-05-14T12:00:13.620Z,100270.69
2019-05-14T12:02:49.800Z,100282.94
2019-05-14T12:05:19.776Z,100266.17
2019-05-14T12:07:49.727Z,100252.16
2019-05-14T12:10:19.054Z,100261.09
2019-05-14T12:12:48.925Z,100250.68
2019-05-14T12:15:18.843Z,100261.05
2019-05-14T12:17:51.066Z,100256.88
2019-05-14T12:20:18.777Z,100249.70
2019-05-14T12:22:50.102Z,100245.32
2019-05-14T12:25:19.207Z,100258.70
2019-05-14T12:27:49.523Z,100251.47
2019-05-14T12:30:19.712Z,100244.63
2019-05-14T12:32:50.138Z,100240.11
2019-05-14T12:35:19.889Z,100235.90
2019-05-14T12:37:50.422Z,100241.95
2019-05-14T12:40:19.603Z,100236.56
2019-05-14T12:42:49.795Z,100224.41
2019-05-14T12:45:21.490Z,100087.07
2019-05-14T12:47:51.818Z,100233.17
2019-05-14T12:50:21.201Z,100223.52
2019-05-14T12:52:50.314Z,100222.45
2019-05-14T12:55:19.800Z,100220.12
2019-05-14T12:57:48.965Z,100200.30
2019-05-14T13:00:18.098Z,100209.91
2019-05-14T13:02:49.650Z,100210.13
2019-05-14T13:05:18.757Z,100206.09
2019-05-14T13:07:50.986Z,100207.28
2019-05-14T13:10:19.034Z,100201.19
2019-05-14T13:12:48.541Z,100189.39
2019-05-14T13:15:20.210Z,100204.47
2019-05-14T13:17:50.408Z,100179.63
2019-05-14T13:20:21.444Z,100190.26
2019-05-14T13:22:50.587Z,100200.62
2019-05-14T13:25:19.702Z,100187.48
2019-05-14T13:27:48.746Z,100192.76
2019-05-14T13:30:18.616Z,100173.31
2019-05-14T13:32:48.802Z,100155.48
2019-05-14T13:35:19.713Z,100159.93
2019-05-14T13:37:50.001Z,100155.22
2019-05-14T13:40:21.166Z,100156.81
2019-05-14T13:42:49.895Z,100153.22
2019-05-14T13:45:19.305Z,100123.91
2019-05-14T13:47:48.934Z,100139.87
2019-05-14T13:50:19.741Z,100126.30
2019-05-14T13:53:09.341Z,100147.32
2019-05-14T13:55:21.046Z,100156.00
2019-05-14T13:57:51.226Z,100145.34
2019-05-14T14:00:20.852Z,100149.05
2019-05-14T14:02:49.909Z,100165.49
2019-05-14T14:05:20.283Z,100142.18
2019-05-14T14:07:49.655Z,100140.56
2019-05-14T14:10:18.913Z,100149.67
2019-05-14T14:12:49.763Z,100134.81
2019-05-14T14:15:19.181Z,100146.86
2019-05-14T14:17:49.563Z,100144.09
2019-05-14T14:20:19.548Z,100136.13
2019-05-14T14:22:49.178Z,100137.57
2019-05-14T14:25:18.340Z,100119.56
2019-05-14T14:27:48.669Z,100120.52
2019-05-14T14:30:19.540Z,100116.16
2019-05-14T14:32:50.781Z,100120.80
2019-05-14T14:35:23.476Z,100131.92
2019-05-14T14:37:52.911Z,100117.64
2019-05-14T14:40:23.214Z,100102.25
2019-05-14T14:42:53.712Z,100106.95
2019-05-14T14:45:22.749Z,100112.81
2019-05-14T14:47:51.865Z,100107.66
2019-05-14T14:50:23.323Z,100111.09
2019-05-14T14:52:52.375Z,100122.28
2019-05-14T14:55:21.381Z,100116.62
2019-05-14T14:57:54.443Z,100094.73
2019-05-14T15:00:21.409Z,100101.51
2019-05-14T15:02:50.568Z,100109.05
2019-05-14T15:05:20.087Z,100099.35
2019-05-14T15:07:50.021Z,100111.50
2019-05-14T15:10:19.465Z,100107.72
2019-05-14T15:12:49.704Z,100101.14
2019-05-14T15:15:19.098Z,100090.05
2019-05-14T15:17:48.441Z,100091.86
2019-05-14T15:20:19.594Z,100092.94
2019-05-14T15:22:49.403Z,100089.97
2019-05-14T15:25:18.624Z,100090.01
2019-05-14T15:27:49.055Z,100083.08
2019-05-14T15:30:18.438Z,100074.87
2019-05-14T15:32:51.009Z,100089.11
2019-05-14T15:35:19.059Z,100068.45
2019-05-14T15:37:48.878Z,100049.38
2019-05-14T15:40:22.163Z,100067.48
2019-05-14T15:42:49.856Z,100056.62
2019-05-14T15:45:19.054Z,100066.91
2019-05-14T15:47:48.731Z,100066.34
2019-05-14T15:50:20.092Z,100062.77
2019-05-14T15:52:48.849Z,100067.06
2019-05-14T15:55:18.426Z,100073.22
2019-05-14T15:57:47.598Z,100060.41
2019-05-14T16:00:19.538Z,100063.98
2019-05-14T16:02:50.348Z,100064.95
2019-05-14T16:05:18.948Z,100064.26
2019-05-14T16:07:50.241Z,100057.50
2019-05-14T16:10:21.726Z,100062.41
2019-05-14T16:12:50.372Z,100062.89
2019-05-14T16:15:19.500Z,100052.30
2019-05-14T16:18:05.858Z,100052.33
2019-05-14T16:20:21.097Z,100043.38
2019-05-14T16:22:50.211Z,100045.90
2019-05-14T16:25:19.299Z,100048.17
2019-05-14T16:27:48.366Z,100048.52
2019-05-14T16:30:19.286Z,100045.22
2019-05-14T16:32:50.650Z,100046.59
2019-05-14T16:35:21.981Z,100057.87
2019-05-14T16:37:51.670Z,100062.81
2019-05-14T16:40:20.826Z,100052.34
2019-05-14T16:42:49.895Z,100052.62
2019-05-14T16:45:20.764Z,100056.05
2019-05-14T16:47:49.756Z,100050.91
2019-05-14T16:50:19.030Z,100061.20
2019-05-14T16:52:50.563Z,100057.66
2019-05-14T16:55:26.482Z,100056.14
2019-05-14T16:57:52.897Z,100050.31
2019-05-14T17:00:22.006Z,100041.52
2019-05-14T17:02:51.076Z,100036.22
2019-05-14T17:05:20.135Z,100033.86
2019-05-14T17:07:49.546Z,100033.66
2019-05-14T17:10:18.688Z,100036.16
2019-05-14T17:12:53.508Z,100038.08
2019-05-14T17:15:18.628Z,100041.83
2019-05-14T17:17:48.343Z,100035.44
2019-05-14T17:20:19.426Z,100039.58
2019-05-14T17:22:49.156Z,100038.69
2019-05-14T17:25:26.636Z,100040.01
2019-05-14T17:27:50.633Z,100043.33
2019-05-14T17:30:19.760Z,100040.49
2019-05-14T17:32:49.471Z,100039.50
2019-05-14T17:35:19.590Z,100049.66
2019-05-14T17:37:49.623Z,100036.70
2019-05-14T17:40:19.922Z,100039.80
2019-05-14T17:42:48.920Z,100040.28
2019-05-14T17:45:17.969Z,100051.23
2019-05-14T17:47:49.027Z,100045.09
2019-05-14T17:50:18.446Z,100043.07
2019-05-14T17:52:55.242Z,100039.63
2019-05-14T17:55:18.808Z,100037.42
2019-05-14T17:57:57.539Z,100037.26
2019-05-14T18:00:20.068Z,100039.58
2019-05-14T18:02:49.184Z,100035.48
2019-05-14T18:05:18.878Z,100035.41
2019-05-14T18:07:48.366Z,100043.28
2019-05-14T18:10:19.497Z,100035.95
2019-05-14T18:12:48.488Z,100032.28
2019-05-14T18:15:17.778Z,100039.82
2019-05-14T18:17:49.490Z,100034.39
2019-05-14T18:20:18.792Z,100032.33
2019-05-14T18:22:48.702Z,100030.61
2019-05-14T18:25:18.399Z,100033.16
2019-05-14T18:27:49.939Z,100028.25
2019-05-14T18:30:19.095Z,100031.36
2019-05-14T18:32:48.726Z,100038.07
2019-05-14T18:35:18.797Z,100034.20
2019-05-14T18:37:48.310Z,100036.80
2019-05-14T18:40:18.341Z,100039.62
2019-05-14T18:42:48.017Z,100034.98
2019-05-14T18:45:18.979Z,100039.03
2019-05-14T18:47:48.665Z,100034.88
2019-05-14T18:50:19.611Z,100041.88
2019-05-14T18:52:48.631Z,100039.18
2019-05-14T18:55:18.693Z,100044.04
2019-05-14T18:57:50.229Z,100043.64
2019-05-14T19:00:19.303Z,100047.23
2019-05-14T19:02:58.163Z,100048.21
2019-05-14T19:05:33.325Z,100045.96
2019-05-14T19:08:03.611Z,100051.92
2019-05-14T19:10:32.876Z,100049.17
2019-05-14T19:13:08.696Z,100052.58
2019-05-14T19:15:38.807Z,100051.38
2019-05-14T19:18:10.945Z,100050.49
2019-05-14T19:20:42.475Z,100053.55
2019-05-14T19:23:11.534Z,100053.92
2019-05-14T19:25:40.804Z,100054.78
2019-05-14T19:28:11.517Z,100053.67
2019-05-14T19:30:40.635Z,100056.59
2019-05-14T19:33:09.740Z,100049.09
2019-05-14T19:35:40.261Z,100057.44
2019-05-14T19:38:09.345Z,100051.88
2019-05-14T19:40:39.156Z,100064.70
2019-05-14T19:43:09.499Z,100055.23
2019-05-14T19:45:38.954Z,100049.69
2019-05-14T19:48:08.247Z,100056.72
2019-05-14T19:50:38.731Z,100055.25
2019-05-14T19:53:09.083Z,100054.39
2019-05-14T19:55:39.112Z,100051.61
2019-05-14T19:58:09.574Z,100059.72
2019-05-14T20:00:38.666Z,100056.45
2019-05-14T20:03:09.341Z,100051.27
2019-05-14T20:05:39.379Z,100053.93
2019-05-14T20:08:09.822Z,100054.66
2019-05-14T20:10:39.127Z,100039.42
2019-05-14T20:13:08.269Z,100047.52
2019-05-14T20:15:39.001Z,100049.59
2019-05-14T20:18:08.961Z,100044.14
2019-05-14T20:20:38.428Z,100048.58
2019-05-14T20:23:07.505Z,100052.56
2019-05-14T20:25:38.635Z,100045.45
2019-05-14T20:28:08.127Z,100049.91
2019-05-14T20:30:39.315Z,100047.62
2019-05-14T20:33:08.692Z,100050.14
2019-05-14T20:35:40.435Z,100055.45
2019-05-14T20:38:09.532Z,100053.05
2019-05-14T20:40:41.004Z,100048.56
2019-05-14T20:43:10.554Z,100033.80
2019-05-14T20:45:40.974Z,100048.80
2019-05-14T20:48:12.114Z,100045.89
2019-05-14T20:50:41.257Z,100039.71
2019-05-14T20:53:10.513Z,100040.69
2019-05-14T20:55:39.945Z,100035.15
2019-05-14T20:58:09.405Z,100037.31
2019-05-14T21:00:41.365Z,100041.66
2019-05-14T21:03:11.470Z,100033.55
2019-05-14T21:05:42.680Z,100032.76
2019-05-14T21:08:13.629Z,100030.14
2019-05-14T21:10:42.676Z,100029.27
2019-05-14T21:13:11.727Z,100031.68
2019-05-14T21:15:43.538Z,100032.65
2019-05-14T21:18:12.608Z,100032.97
2019-05-14T21:20:41.742Z,100037.24
2019-05-14T21:23:10.867Z,100035.09
2019-05-14T21:25:41.094Z,100036.48
2019-05-14T21:28:10.119Z,100036.99
2019-05-14T21:30:39.292Z,100032.68
2019-05-14T21:33:10.540Z,100031.11
2019-05-14T21:35:39.584Z,100028.25
2019-05-14T21:38:09.370Z,100024.88
2019-05-14T21:40:39.132Z,100025.08
2019-05-14T21:43:11.023Z,100026.11
2019-05-14T21:45:39.110Z,100027.17
2019-05-14T21:48:08.763Z,100032.13
2019-05-14T21:50:38.777Z,100035.18
2019-05-14T21:53:08.544Z,100030.59
2019-05-14T21:55:39.515Z,100036.11
2019-05-14T21:58:11.703Z,100027.02
2019-05-14T22:00:42.447Z,100028.80
2019-05-14T22:03:11.727Z,100029.56
2019-05-14T22:05:42.435Z,100035.83
2019-05-14T22:08:11.542Z,100034.06
2019-05-14T22:10:40.563Z,100032.12
2019-05-14T22:13:09.832Z,100037.11
2019-05-14T22:15:40.993Z,100032.14
2019-05-14T22:18:17.312Z,100034.22
2019-05-14T22:20:41.078Z,100026.23
2019-05-14T22:23:10.137Z,100025.10
2019-05-14T22:25:40.752Z,100028.98
2019-05-14T22:28:15.238Z,100022.06
2019-05-14T22:30:40.744Z,100020.77
2019-05-14T22:33:09.807Z,100030.06
2019-05-14T22:35:41.111Z,100018.77
2019-05-14T22:38:10.214Z,100017.66
2019-05-14T22:40:39.368Z,100015.27
2019-05-14T22:43:09.358Z,100028.89
2019-05-14T22:45:38.795Z,100027.27
2019-05-14T22:48:09.386Z,100013.48
2019-05-14T22:50:41.308Z,100018.14
2019-05-14T22:53:09.478Z,100020.31
2019-05-14T22:55:38.565Z,100019.42
2019-05-14T22:58:08.648Z,100022.12
2019-05-14T23:00:45.004Z,100012.44
2019-05-14T23:03:09.515Z,100016.97
2019-05-14T23:05:39.373Z,100018.20
2019-05-14T23:08:09.022Z,100024.73
2019-05-14T23:10:38.825Z,100020.28
2019-05-14T23:13:09.342Z,100020.75
2019-05-14T23:15:38.739Z,100030.66
2019-05-14T23:18:08.545Z,100020.46
2019-05-14T23:20:38.960Z,100027.45
2019-05-14T23:23:09.211Z,100018.98
2019-05-14T23:25:38.876Z,100017.27
2019-05-14T23:28:08.610Z,100016.60
2019-05-14T23:30:38.803Z,100016.12
2019-05-14T23:33:08.090Z,100012.44
2019-05-14T23:35:39.004Z,100016.56
2019-05-14T23:38:08.494Z,100010.77
2019-05-14T23:40:38.744Z,100016.50
2019-05-14T23:43:08.018Z,100011.06
2019-05-14T23:45:38.035Z,100010.48
2019-05-14T23:48:09.485Z,100009.86
2019-05-14T23:50:40.558Z,100006.93
2019-05-14T23:53:09.634Z,100007.13
2019-05-14T23:55:39.800Z,100003.91
2019-05-14T23:58:08.805Z,100006.33
